sensor_id;sensor_type;location;lat;lon;timestamp;P1;durP1;ratioP1;P2;durP2;ratioP2
15449;SDS011;7826;49.784;9.934;2023-02-08T00:02:25;7.60;;;4.10;;
15449;SDS011;7826;49.784;9.934;2023-02-08T00:04:52;7.93;;;5.77;;
15449;SDS011;7826;49.784;9.934;2023-02-08T00:07:18;11.17;;;4.57;;
15449;SDS011;7826;49.784;9.934;2023-02-08T00:09:44;8.53;;;5.63;;
15449;SDS011;7826;49.784;9.934;2023-02-08T00:12:10;9.13;;;4.63;;
15449;SDS011;7826;49.784;9.934;2023-02-08T00:14:37;7.70;;;4.93;;
15449;SDS011;7826;49.784;9.934;2023-02-08T00:17:03;10.90;;;4.97;;
15449;SDS011;7826;49.784;9.934;2023-02-08T00:19:29;7.83;;;4.83;;
15449;SDS011;7826;49.784;9.934;2023-02-08T00:21:55;7.73;;;3.93;;
15449;SDS011;7826;49.784;9.934;2023-02-08T00:24:22;7.30;;;4.43;;
15449;SDS011;7826;49.784;9.934;2023-02-08T00:26:48;9.37;;;5.03;;
15449;SDS011;7826;49.784;9.934;2023-02-08T00:29:14;6.63;;;3.60;;
15449;SDS011;7826;49.784;9.934;2023-02-08T00:31:40;6.40;;;4.50;;
15449;SDS011;7826;49.784;9.934;2023-02-08T00:34:07;10.57;;;4.20;;
15449;SDS011;7826;49.784;9.934;2023-02-08T00:36:33;8.90;;;5.17;;
15449;SDS011;7826;49.784;9.934;2023-02-08T00:38:59;7.50;;;4.13;;
15449;SDS011;7826;49.784;9.934;2023-02-08T00:41:25;8.33;;;4.73;;
15449;SDS011;7826;49.784;9.934;2023-02-08T00:43:52;9.33;;;4.63;;
15449;SDS011;7826;49.784;9.934;2023-02-08T00:46:18;9.83;;;4.13;;
15449;SDS011;7826;49.784;9.934;2023-02-08T00:48:45;14.23;;;4.10;;
15449;SDS011;7826;49.784;9.934;2023-02-08T00:51:12;9.00;;;4.77;;
15449;SDS011;7826;49.784;9.934;2023-02-08T00:53:39;8.23;;;3.70;;
15449;SDS011;7826;49.784;9.934;2023-02-08T00:56:07;8.90;;;4.97;;
15449;SDS011;7826;49.784;9.934;2023-02-08T00:58:35;8.43;;;5.40;;
15449;SDS011;7826;49.784;9.934;2023-02-08T01:01:01;6.03;;;4.97;;
15449;SDS011;7826;49.784;9.934;2023-02-08T01:03:28;7.47;;;4.70;;
15449;SDS011;7826;49.784;9.934;2023-02-08T01:05:59;5.80;;;3.57;;
15449;SDS011;7826;49.784;9.934;2023-02-08T01:08:26;7.33;;;4.40;;
15449;SDS011;7826;49.784;9.934;2023-02-08T01:10:52;8.43;;;4.00;;
15449;SDS011;7826;49.784;9.934;2023-02-08T01:13:26;6.27;;;4.97;;
15449;SDS011;7826;49.784;9.934;2023-02-08T01:15:52;8.43;;;4.00;;
15449;SDS011;7826;49.784;9.934;2023-02-08T01:18:18;6.70;;;4.97;;
15449;SDS011;7826;49.784;9.934;2023-02-08T01:20:45;10.70;;;5.17;;
15449;SDS011;7826;49.784;9.934;2023-02-08T01:23:11;6.77;;;4.00;;
15449;SDS011;7826;49.784;9.934;2023-02-08T01:25:37;4.50;;;3.53;;
15449;SDS011;7826;49.784;9.934;2023-02-08T01:28:04;6.23;;;4.63;;
15449;SDS011;7826;49.784;9.934;2023-02-08T01:30:30;8.00;;;4.77;;
15449;SDS011;7826;49.784;9.934;2023-02-08T01:32:56;13.90;;;4.37;;
15449;SDS011;7826;49.784;9.934;2023-02-08T01:35:22;8.27;;;4.70;;
15449;SDS011;7826;49.784;9.934;2023-02-08T01:37:49;5.97;;;4.00;;
15449;SDS011;7826;49.784;9.934;2023-02-08T01:40:15;9.07;;;5.17;;
15449;SDS011;7826;49.784;9.934;2023-02-08T01:42:42;7.43;;;4.77;;
15449;SDS011;7826;49.784;9.934;2023-02-08T01:47:44;7.30;;;4.50;;
15449;SDS011;7826;49.784;9.934;2023-02-08T01:50:19;10.53;;;4.93;;
15449;SDS011;7826;49.784;9.934;2023-02-08T01:52:48;6.00;;;4.23;;
15449;SDS011;7826;49.784;9.934;2023-02-08T01:55:25;6.33;;;3.77;;
15449;SDS011;7826;49.784;9.934;2023-02-08T01:57:56;11.30;;;4.43;;
15449;SDS011;7826;49.784;9.934;2023-02-08T02:00:25;7.07;;;4.37;;
15449;SDS011;7826;49.784;9.934;2023-02-08T02:02:53;7.13;;;3.87;;
15449;SDS011;7826;49.784;9.934;2023-02-08T02:05:21;7.27;;;4.10;;
15449;SDS011;7826;49.784;9.934;2023-02-08T02:07:52;9.10;;;4.33;;
15449;SDS011;7826;49.784;9.934;2023-02-08T02:10:22;10.03;;;5.27;;
15449;SDS011;7826;49.784;9.934;2023-02-08T02:12:52;6.20;;;4.60;;
15449;SDS011;7826;49.784;9.934;2023-02-08T02:15:21;7.67;;;3.97;;
15449;SDS011;7826;49.784;9.934;2023-02-08T02:17:47;7.53;;;4.67;;
15449;SDS011;7826;49.784;9.934;2023-02-08T02:25:27;9.13;;;5.03;;
15449;SDS011;7826;49.784;9.934;2023-02-08T02:33:39;8.03;;;4.57;;
15449;SDS011;7826;49.784;9.934;2023-02-08T02:41:36;5.30;;;4.43;;
15449;SDS011;7826;49.784;9.934;2023-02-08T02:44:53;6.13;;;4.63;;
15449;SDS011;7826;49.784;9.934;2023-02-08T02:50:21;6.60;;;4.23;;
15449;SDS011;7826;49.784;9.934;2023-02-08T02:53:32;6.73;;;4.13;;
15449;SDS011;7826;49.784;9.934;2023-02-08T02:56:16;5.60;;;3.60;;
15449;SDS011;7826;49.784;9.934;2023-02-08T02:58:50;11.60;;;4.83;;
15449;SDS011;7826;49.784;9.934;2023-02-08T03:01:21;5.07;;;3.27;;
15449;SDS011;7826;49.784;9.934;2023-02-08T03:03:51;7.97;;;4.33;;
15449;SDS011;7826;49.784;9.934;2023-02-08T03:06:22;4.77;;;3.27;;
15449;SDS011;7826;49.784;9.934;2023-02-08T03:11:50;6.60;;;4.47;;
15449;SDS011;7826;49.784;9.934;2023-02-08T03:17:10;10.97;;;5.00;;
15449;SDS011;7826;49.784;9.934;2023-02-08T03:23:01;7.57;;;4.50;;
15449;SDS011;7826;49.784;9.934;2023-02-08T03:26:14;8.13;;;3.70;;
15449;SDS011;7826;49.784;9.934;2023-02-08T03:33:51;6.00;;;3.40;;
15449;SDS011;7826;49.784;9.934;2023-02-08T03:38:58;8.63;;;4.63;;
15449;SDS011;7826;49.784;9.934;2023-02-08T03:41:32;9.43;;;4.13;;
15449;SDS011;7826;49.784;9.934;2023-02-08T03:44:02;7.27;;;3.83;;
15449;SDS011;7826;49.784;9.934;2023-02-08T03:46:48;6.27;;;3.60;;
15449;SDS011;7826;49.784;9.934;2023-02-08T03:49:20;5.47;;;3.80;;
15449;SDS011;7826;49.784;9.934;2023-02-08T03:51:49;8.17;;;5.10;;
15449;SDS011;7826;49.784;9.934;2023-02-08T03:54:23;7.27;;;5.10;;
15449;SDS011;7826;49.784;9.934;2023-02-08T03:56:56;7.23;;;4.07;;
15449;SDS011;7826;49.784;9.934;2023-02-08T03:59:31;7.00;;;5.37;;
15449;SDS011;7826;49.784;9.934;2023-02-08T04:02:02;4.80;;;3.73;;
15449;SDS011;7826;49.784;9.934;2023-02-08T04:04:33;7.60;;;4.63;;
15449;SDS011;7826;49.784;9.934;2023-02-08T04:07:01;8.00;;;4.10;;
15449;SDS011;7826;49.784;9.934;2023-02-08T04:09:28;6.13;;;4.07;;
15449;SDS011;7826;49.784;9.934;2023-02-08T04:11:55;4.73;;;3.73;;
15449;SDS011;7826;49.784;9.934;2023-02-08T04:14:22;6.93;;;4.20;;
15449;SDS011;7826;49.784;9.934;2023-02-08T04:17:06;5.53;;;3.57;;
15449;SDS011;7826;49.784;9.934;2023-02-08T04:19:32;7.87;;;4.67;;
15449;SDS011;7826;49.784;9.934;2023-02-08T04:21:59;5.93;;;4.03;;
15449;SDS011;7826;49.784;9.934;2023-02-08T04:24:25;8.77;;;4.87;;
15449;SDS011;7826;49.784;9.934;2023-02-08T04:26:52;7.97;;;4.27;;
15449;SDS011;7826;49.784;9.934;2023-02-08T04:29:18;8.60;;;5.83;;
15449;SDS011;7826;49.784;9.934;2023-02-08T04:31:46;10.30;;;4.40;;
15449;SDS011;7826;49.784;9.934;2023-02-08T04:34:13;5.77;;;4.33;;
15449;SDS011;7826;49.784;9.934;2023-02-08T04:36:40;8.87;;;4.53;;
15449;SDS011;7826;49.784;9.934;2023-02-08T04:39:07;7.03;;;4.00;;
15449;SDS011;7826;49.784;9.934;2023-02-08T04:41:34;11.53;;;5.30;;
15449;SDS011;7826;49.784;9.934;2023-02-08T04:44:02;7.73;;;4.87;;
15449;SDS011;7826;49.784;9.934;2023-02-08T04:46:29;6.77;;;3.37;;
15449;SDS011;7826;49.784;9.934;2023-02-08T04:48:56;5.93;;;3.63;;
15449;SDS011;7826;49.784;9.934;2023-02-08T04:51:23;8.27;;;4.97;;
15449;SDS011;7826;49.784;9.934;2023-02-08T04:53:50;6.17;;;4.83;;
15449;SDS011;7826;49.784;9.934;2023-02-08T04:56:18;10.80;;;4.87;;
15449;SDS011;7826;49.784;9.934;2023-02-08T04:58:45;6.27;;;4.60;;
15449;SDS011;7826;49.784;9.934;2023-02-08T05:01:13;7.33;;;3.87;;
15449;SDS011;7826;49.784;9.934;2023-02-08T05:03:41;7.03;;;4.37;;
15449;SDS011;7826;49.784;9.934;2023-02-08T05:06:08;9.90;;;4.70;;
15449;SDS011;7826;49.784;9.934;2023-02-08T05:08:36;8.40;;;4.43;;
15449;SDS011;7826;49.784;9.934;2023-02-08T05:11:03;4.47;;;3.60;;
15449;SDS011;7826;49.784;9.934;2023-02-08T05:13:30;4.10;;;3.70;;
15449;SDS011;7826;49.784;9.934;2023-02-08T05:15:56;5.37;;;4.10;;
15449;SDS011;7826;49.784;9.934;2023-02-08T05:18:24;5.50;;;4.27;;
15449;SDS011;7826;49.784;9.934;2023-02-08T05:20:54;8.43;;;4.97;;
15449;SDS011;7826;49.784;9.934;2023-02-08T05:23:22;3.83;;;3.33;;
15449;SDS011;7826;49.784;9.934;2023-02-08T05:25:49;9.97;;;4.73;;
15449;SDS011;7826;49.784;9.934;2023-02-08T05:28:16;9.27;;;4.50;;
15449;SDS011;7826;49.784;9.934;2023-02-08T05:30:45;6.03;;;3.97;;
15449;SDS011;7826;49.784;9.934;2023-02-08T05:33:12;4.50;;;3.97;;
15449;SDS011;7826;49.784;9.934;2023-02-08T05:35:40;8.97;;;6.07;;
15449;SDS011;7826;49.784;9.934;2023-02-08T05:38:09;7.87;;;4.47;;
15449;SDS011;7826;49.784;9.934;2023-02-08T05:40:35;5.17;;;4.33;;
15449;SDS011;7826;49.784;9.934;2023-02-08T05:43:02;6.67;;;4.00;;
15449;SDS011;7826;49.784;9.934;2023-02-08T05:45:29;6.07;;;3.10;;
15449;SDS011;7826;49.784;9.934;2023-02-08T05:47:55;8.30;;;4.13;;
15449;SDS011;7826;49.784;9.934;2023-02-08T05:50:22;5.63;;;4.03;;
15449;SDS011;7826;49.784;9.934;2023-02-08T05:52:48;7.47;;;4.67;;
15449;SDS011;7826;49.784;9.934;2023-02-08T05:55:15;5.60;;;4.20;;
15449;SDS011;7826;49.784;9.934;2023-02-08T05:57:41;8.43;;;4.37;;
15449;SDS011;7826;49.784;9.934;2023-02-08T06:00:08;5.90;;;3.50;;
15449;SDS011;7826;49.784;9.934;2023-02-08T06:02:35;6.77;;;4.20;;
15449;SDS011;7826;49.784;9.934;2023-02-08T06:05:02;8.20;;;4.97;;
15449;SDS011;7826;49.784;9.934;2023-02-08T06:07:29;8.37;;;4.37;;
15449;SDS011;7826;49.784;9.934;2023-02-08T06:09:56;5.47;;;4.10;;
15449;SDS011;7826;49.784;9.934;2023-02-08T06:12:22;6.17;;;3.97;;
15449;SDS011;7826;49.784;9.934;2023-02-08T06:14:49;9.63;;;4.37;;
15449;SDS011;7826;49.784;9.934;2023-02-08T06:17:16;4.97;;;3.83;;
15449;SDS011;7826;49.784;9.934;2023-02-08T06:19:43;6.00;;;4.60;;
15449;SDS011;7826;49.784;9.934;2023-02-08T06:22:09;8.13;;;4.97;;
15449;SDS011;7826;49.784;9.934;2023-02-08T06:24:36;6.73;;;4.10;;
15449;SDS011;7826;49.784;9.934;2023-02-08T06:27:02;8.77;;;4.73;;
15449;SDS011;7826;49.784;9.934;2023-02-08T06:29:29;6.43;;;4.00;;
15449;SDS011;7826;49.784;9.934;2023-02-08T06:31:55;9.53;;;5.03;;
15449;SDS011;7826;49.784;9.934;2023-02-08T06:34:22;7.67;;;4.67;;
15449;SDS011;7826;49.784;9.934;2023-02-08T06:36:49;6.70;;;4.43;;
15449;SDS011;7826;49.784;9.934;2023-02-08T06:39:15;8.53;;;4.40;;
15449;SDS011;7826;49.784;9.934;2023-02-08T06:41:42;7.33;;;5.03;;
15449;SDS011;7826;49.784;9.934;2023-02-08T06:44:08;8.50;;;4.83;;
15449;SDS011;7826;49.784;9.934;2023-02-08T06:46:37;7.63;;;5.63;;
15449;SDS011;7826;49.784;9.934;2023-02-08T06:49:04;8.50;;;3.97;;
15449;SDS011;7826;49.784;9.934;2023-02-08T06:51:30;13.43;;;5.33;;
15449;SDS011;7826;49.784;9.934;2023-02-08T06:53:57;8.20;;;5.57;;
15449;SDS011;7826;49.784;9.934;2023-02-08T06:56:24;7.70;;;5.07;;
15449;SDS011;7826;49.784;9.934;2023-02-08T06:58:51;9.37;;;5.10;;
15449;SDS011;7826;49.784;9.934;2023-02-08T07:01:17;6.80;;;4.13;;
15449;SDS011;7826;49.784;9.934;2023-02-08T07:03:44;10.87;;;5.53;;
15449;SDS011;7826;49.784;9.934;2023-02-08T07:06:14;11.33;;;5.37;;
15449;SDS011;7826;49.784;9.934;2023-02-08T07:08:42;8.83;;;5.53;;
15449;SDS011;7826;49.784;9.934;2023-02-08T07:11:13;8.73;;;5.53;;
15449;SDS011;7826;49.784;9.934;2023-02-08T07:13:41;8.80;;;5.43;;
15449;SDS011;7826;49.784;9.934;2023-02-08T07:16:08;9.43;;;5.03;;
15449;SDS011;7826;49.784;9.934;2023-02-08T07:18:35;6.33;;;5.43;;
15449;SDS011;7826;49.784;9.934;2023-02-08T07:21:02;10.43;;;5.90;;
15449;SDS011;7826;49.784;9.934;2023-02-08T07:23:29;7.77;;;5.23;;
15449;SDS011;7826;49.784;9.934;2023-02-08T07:25:56;16.10;;;5.50;;
15449;SDS011;7826;49.784;9.934;2023-02-08T07:28:23;18.10;;;5.17;;
15449;SDS011;7826;49.784;9.934;2023-02-08T07:30:50;13.50;;;5.93;;
15449;SDS011;7826;49.784;9.934;2023-02-08T07:33:17;14.30;;;6.03;;
15449;SDS011;7826;49.784;9.934;2023-02-08T07:35:44;13.87;;;6.83;;
15449;SDS011;7826;49.784;9.934;2023-02-08T07:38:11;8.43;;;5.53;;
15449;SDS011;7826;49.784;9.934;2023-02-08T07:40:37;11.57;;;6.27;;
15449;SDS011;7826;49.784;9.934;2023-02-08T07:43:04;16.30;;;6.40;;
15449;SDS011;7826;49.784;9.934;2023-02-08T07:45:31;10.93;;;6.07;;
15449;SDS011;7826;49.784;9.934;2023-02-08T07:47:58;12.07;;;5.70;;
15449;SDS011;7826;49.784;9.934;2023-02-08T07:50:25;11.37;;;6.03;;
15449;SDS011;7826;49.784;9.934;2023-02-08T07:52:51;11.67;;;5.87;;
15449;SDS011;7826;49.784;9.934;2023-02-08T07:55:18;11.17;;;5.50;;
15449;SDS011;7826;49.784;9.934;2023-02-08T07:57:46;11.70;;;6.00;;
15449;SDS011;7826;49.784;9.934;2023-02-08T08:00:15;8.07;;;5.80;;
15449;SDS011;7826;49.784;9.934;2023-02-08T08:02:43;9.03;;;5.80;;
15449;SDS011;7826;49.784;9.934;2023-02-08T08:05:09;11.93;;;5.83;;
15449;SDS011;7826;49.784;9.934;2023-02-08T08:07:36;12.27;;;6.97;;
15449;SDS011;7826;49.784;9.934;2023-02-08T08:10:05;8.63;;;5.80;;
15449;SDS011;7826;49.784;9.934;2023-02-08T08:12:32;8.27;;;5.40;;
15449;SDS011;7826;49.784;9.934;2023-02-08T08:14:58;13.97;;;6.47;;
15449;SDS011;7826;49.784;9.934;2023-02-08T08:17:24;11.27;;;6.40;;
15449;SDS011;7826;49.784;9.934;2023-02-08T08:19:51;14.83;;;6.73;;
15449;SDS011;7826;49.784;9.934;2023-02-08T08:22:17;14.50;;;6.50;;
15449;SDS011;7826;49.784;9.934;2023-02-08T08:24:43;9.87;;;6.33;;
15449;SDS011;7826;49.784;9.934;2023-02-08T08:27:10;14.63;;;8.33;;
15449;SDS011;7826;49.784;9.934;2023-02-08T08:29:36;13.43;;;7.17;;
15449;SDS011;7826;49.784;9.934;2023-02-08T08:32:03;13.90;;;6.83;;
15449;SDS011;7826;49.784;9.934;2023-02-08T08:34:31;13.87;;;7.07;;
15449;SDS011;7826;49.784;9.934;2023-02-08T08:36:59;9.77;;;6.23;;
15449;SDS011;7826;49.784;9.934;2023-02-08T08:39:26;10.93;;;6.43;;
15449;SDS011;7826;49.784;9.934;2023-02-08T08:42:00;13.23;;;6.17;;
15449;SDS011;7826;49.784;9.934;2023-02-08T08:44:29;12.40;;;7.00;;
15449;SDS011;7826;49.784;9.934;2023-02-08T08:46:56;12.13;;;6.43;;
15449;SDS011;7826;49.784;9.934;2023-02-08T08:49:24;8.73;;;6.13;;
15449;SDS011;7826;49.784;9.934;2023-02-08T08:51:52;11.83;;;6.93;;
15449;SDS011;7826;49.784;9.934;2023-02-08T08:54:20;10.73;;;6.37;;
15449;SDS011;7826;49.784;9.934;2023-02-08T08:56:49;11.57;;;7.07;;
15449;SDS011;7826;49.784;9.934;2023-02-08T08:59:16;10.57;;;6.57;;
15449;SDS011;7826;49.784;9.934;2023-02-08T09:01:42;14.53;;;7.37;;
15449;SDS011;7826;49.784;9.934;2023-02-08T09:04:09;10.57;;;6.23;;
15449;SDS011;7826;49.784;9.934;2023-02-08T09:06:42;11.77;;;7.67;;
15449;SDS011;7826;49.784;9.934;2023-02-08T09:09:10;10.33;;;7.03;;
15449;SDS011;7826;49.784;9.934;2023-02-08T09:11:36;11.83;;;7.07;;
15449;SDS011;7826;49.784;9.934;2023-02-08T09:14:04;13.50;;;6.97;;
15449;SDS011;7826;49.784;9.934;2023-02-08T09:16:31;10.73;;;7.20;;
15449;SDS011;7826;49.784;9.934;2023-02-08T09:19:02;10.13;;;7.03;;
15449;SDS011;7826;49.784;9.934;2023-02-08T09:21:30;10.07;;;7.30;;
15449;SDS011;7826;49.784;9.934;2023-02-08T09:23:57;13.17;;;7.23;;
15449;SDS011;7826;49.784;9.934;2023-02-08T09:26:28;13.77;;;7.63;;
15449;SDS011;7826;49.784;9.934;2023-02-08T09:28:55;15.73;;;8.57;;
15449;SDS011;7826;49.784;9.934;2023-02-08T09:31:24;13.13;;;8.30;;
15449;SDS011;7826;49.784;9.934;2023-02-08T09:33:53;12.63;;;7.43;;
15449;SDS011;7826;49.784;9.934;2023-02-08T09:36:22;12.97;;;8.10;;
15449;SDS011;7826;49.784;9.934;2023-02-08T09:38:52;17.07;;;8.10;;
15449;SDS011;7826;49.784;9.934;2023-02-08T09:47:05;14.20;;;7.53;;
15449;SDS011;7826;49.784;9.934;2023-02-08T09:49:40;13.77;;;7.80;;
15449;SDS011;7826;49.784;9.934;2023-02-08T09:52:25;12.33;;;7.33;;
15449;SDS011;7826;49.784;9.934;2023-02-08T09:56:08;11.67;;;7.50;;
15449;SDS011;7826;49.784;9.934;2023-02-08T10:00:52;9.67;;;6.93;;
15449;SDS011;7826;49.784;9.934;2023-02-08T10:03:22;10.50;;;6.50;;
15449;SDS011;7826;49.784;9.934;2023-02-08T10:06:14;12.97;;;6.77;;
15449;SDS011;7826;49.784;9.934;2023-02-08T10:08:43;12.47;;;7.63;;
15449;SDS011;7826;49.784;9.934;2023-02-08T10:27:26;11.70;;;6.43;;
15449;SDS011;7826;49.784;9.934;2023-02-08T10:33:16;13.97;;;7.33;;
15449;SDS011;7826;49.784;9.934;2023-02-08T10:35:48;13.90;;;6.97;;
15449;SDS011;7826;49.784;9.934;2023-02-08T10:40:58;16.97;;;7.53;;
15449;SDS011;7826;49.784;9.934;2023-02-08T10:51:39;12.20;;;7.27;;
15449;SDS011;7826;49.784;9.934;2023-02-08T10:54:08;15.87;;;7.90;;
15449;SDS011;7826;49.784;9.934;2023-02-08T10:59:45;13.17;;;6.77;;
15449;SDS011;7826;49.784;9.934;2023-02-08T11:02:19;10.77;;;6.47;;
15449;SDS011;7826;49.784;9.934;2023-02-08T11:07:30;12.93;;;6.00;;
15449;SDS011;7826;49.784;9.934;2023-02-08T11:10:11;16.33;;;7.80;;
15449;SDS011;7826;49.784;9.934;2023-02-08T11:20:51;13.33;;;7.30;;
15449;SDS011;7826;49.784;9.934;2023-02-08T11:23:26;10.57;;;6.10;;
15449;SDS011;7826;49.784;9.934;2023-02-08T11:28:42;12.57;;;6.53;;
15449;SDS011;7826;49.784;9.934;2023-02-08T11:31:19;12.67;;;6.23;;
15449;SDS011;7826;49.784;9.934;2023-02-08T11:34:02;13.77;;;7.10;;
15449;SDS011;7826;49.784;9.934;2023-02-08T11:36:32;12.10;;;6.27;;
15449;SDS011;7826;49.784;9.934;2023-02-08T11:39:01;11.53;;;6.60;;
15449;SDS011;7826;49.784;9.934;2023-02-08T11:41:47;10.90;;;5.70;;
15449;SDS011;7826;49.784;9.934;2023-02-08T11:44:20;12.97;;;5.73;;
15449;SDS011;7826;49.784;9.934;2023-02-08T11:46:49;8.07;;;5.10;;
15449;SDS011;7826;49.784;9.934;2023-02-08T11:49:24;11.47;;;6.00;;
15449;SDS011;7826;49.784;9.934;2023-02-08T11:51:54;12.67;;;6.20;;
15449;SDS011;7826;49.784;9.934;2023-02-08T11:54:40;14.60;;;5.63;;
15449;SDS011;7826;49.784;9.934;2023-02-08T11:57:23;10.27;;;5.97;;
15449;SDS011;7826;49.784;9.934;2023-02-08T12:02:45;10.37;;;4.50;;
15449;SDS011;7826;49.784;9.934;2023-02-08T12:05:13;12.57;;;6.23;;
15449;SDS011;7826;49.784;9.934;2023-02-08T12:16:16;10.53;;;5.90;;
15449;SDS011;7826;49.784;9.934;2023-02-08T12:22:24;10.90;;;6.10;;
15449;SDS011;7826;49.784;9.934;2023-02-08T12:28:00;11.37;;;6.03;;
15449;SDS011;7826;49.784;9.934;2023-02-08T12:30:58;8.33;;;5.33;;
15449;SDS011;7826;49.784;9.934;2023-02-08T12:36:42;11.53;;;5.87;;
15449;SDS011;7826;49.784;9.934;2023-02-08T12:48:47;10.90;;;5.33;;
15449;SDS011;7826;49.784;9.934;2023-02-08T12:54:23;14.10;;;5.40;;
15449;SDS011;7826;49.784;9.934;2023-02-08T12:57:05;10.77;;;4.83;;
15449;SDS011;7826;49.784;9.934;2023-02-08T12:59:38;10.43;;;5.37;;
15449;SDS011;7826;49.784;9.934;2023-02-08T13:04:45;9.40;;;4.73;;
15449;SDS011;7826;49.784;9.934;2023-02-08T13:07:23;8.70;;;5.17;;
15449;SDS011;7826;49.784;9.934;2023-02-08T13:12:45;10.73;;;5.60;;
15449;SDS011;7826;49.784;9.934;2023-02-08T13:15:17;10.93;;;5.90;;
15449;SDS011;7826;49.784;9.934;2023-02-08T13:17:53;10.10;;;4.90;;
15449;SDS011;7826;49.784;9.934;2023-02-08T13:23:27;12.97;;;5.50;;
15449;SDS011;7826;49.784;9.934;2023-02-08T13:25:57;11.07;;;4.93;;
15449;SDS011;7826;49.784;9.934;2023-02-08T13:28:27;7.77;;;5.27;;
15449;SDS011;7826;49.784;9.934;2023-02-08T13:31:04;9.80;;;5.07;;
15449;SDS011;7826;49.784;9.934;2023-02-08T13:38:59;9.90;;;4.97;;
15449;SDS011;7826;49.784;9.934;2023-02-08T13:41:28;13.53;;;5.63;;
15449;SDS011;7826;49.784;9.934;2023-02-08T13:44:03;8.13;;;5.07;;
15449;SDS011;7826;49.784;9.934;2023-02-08T13:46:43;8.70;;;5.33;;
15449;SDS011;7826;49.784;9.934;2023-02-08T13:52:10;7.57;;;4.27;;
15449;SDS011;7826;49.784;9.934;2023-02-08T13:54:38;7.43;;;4.60;;
15449;SDS011;7826;49.784;9.934;2023-02-08T13:57:26;6.33;;;4.33;;
15449;SDS011;7826;49.784;9.934;2023-02-08T14:00:19;5.33;;;4.07;;
15449;SDS011;7826;49.784;9.934;2023-02-08T14:03:00;6.23;;;4.37;;
15449;SDS011;7826;49.784;9.934;2023-02-08T14:05:39;6.53;;;3.87;;
15449;SDS011;7826;49.784;9.934;2023-02-08T14:08:25;9.47;;;4.50;;
15449;SDS011;7826;49.784;9.934;2023-02-08T14:13:38;13.60;;;4.90;;
15449;SDS011;7826;49.784;9.934;2023-02-08T14:18:58;8.70;;;5.23;;
15449;SDS011;7826;49.784;9.934;2023-02-08T14:21:31;7.03;;;4.50;;
15449;SDS011;7826;49.784;9.934;2023-02-08T14:24:18;8.57;;;5.00;;
15449;SDS011;7826;49.784;9.934;2023-02-08T14:32:44;8.57;;;4.80;;
15449;SDS011;7826;49.784;9.934;2023-02-08T14:35:18;6.10;;;3.63;;
15449;SDS011;7826;49.784;9.934;2023-02-08T14:37:48;7.87;;;3.50;;
15449;SDS011;7826;49.784;9.934;2023-02-08T14:40:54;6.83;;;3.60;;
15449;SDS011;7826;49.784;9.934;2023-02-08T14:45:57;5.03;;;3.60;;
15449;SDS011;7826;49.784;9.934;2023-02-08T14:48:44;4.33;;;2.57;;
15449;SDS011;7826;49.784;9.934;2023-02-08T14:51:16;4.07;;;2.97;;
15449;SDS011;7826;49.784;9.934;2023-02-08T14:56:28;5.07;;;3.07;;
15449;SDS011;7826;49.784;9.934;2023-02-08T14:58:58;6.80;;;2.93;;
15449;SDS011;7826;49.784;9.934;2023-02-08T15:01:34;3.37;;;2.67;;
15449;SDS011;7826;49.784;9.934;2023-02-08T15:04:07;4.23;;;2.83;;
15449;SDS011;7826;49.784;9.934;2023-02-08T15:14:24;6.33;;;3.23;;
15449;SDS011;7826;49.784;9.934;2023-02-08T15:16:51;4.30;;;2.83;;
15449;SDS011;7826;49.784;9.934;2023-02-08T15:19:27;4.33;;;3.00;;
15449;SDS011;7826;49.784;9.934;2023-02-08T15:24:48;6.87;;;4.47;;
15449;SDS011;7826;49.784;9.934;2023-02-08T15:27:20;6.53;;;4.10;;
15449;SDS011;7826;49.784;9.934;2023-02-08T15:29:52;8.60;;;4.03;;
15449;SDS011;7826;49.784;9.934;2023-02-08T15:32:20;6.40;;;4.13;;
15449;SDS011;7826;49.784;9.934;2023-02-08T15:34:52;5.53;;;3.80;;
15449;SDS011;7826;49.784;9.934;2023-02-08T15:37:19;9.37;;;3.87;;
15449;SDS011;7826;49.784;9.934;2023-02-08T15:39:53;10.37;;;4.03;;
15449;SDS011;7826;49.784;9.934;2023-02-08T15:42:22;7.63;;;4.67;;
15449;SDS011;7826;49.784;9.934;2023-02-08T15:44:50;8.80;;;4.63;;
15449;SDS011;7826;49.784;9.934;2023-02-08T15:47:18;7.40;;;5.47;;
15449;SDS011;7826;49.784;9.934;2023-02-08T15:49:50;8.73;;;4.20;;
15449;SDS011;7826;49.784;9.934;2023-02-08T15:52:21;7.53;;;4.73;;
15449;SDS011;7826;49.784;9.934;2023-02-08T15:54:50;8.80;;;4.47;;
15449;SDS011;7826;49.784;9.934;2023-02-08T15:57:40;6.70;;;4.13;;
15449;SDS011;7826;49.784;9.934;2023-02-08T16:00:15;7.67;;;3.93;;
15449;SDS011;7826;49.784;9.934;2023-02-08T16:02:48;9.03;;;4.87;;
15449;SDS011;7826;49.784;9.934;2023-02-08T16:05:38;7.97;;;4.30;;
15449;SDS011;7826;49.784;9.934;2023-02-08T16:08:04;7.73;;;3.90;;
15449;SDS011;7826;49.784;9.934;2023-02-08T16:10:33;7.50;;;4.13;;
15449;SDS011;7826;49.784;9.934;2023-02-08T16:13:05;5.40;;;3.30;;
15449;SDS011;7826;49.784;9.934;2023-02-08T16:15:41;4.50;;;2.73;;
15449;SDS011;7826;49.784;9.934;2023-02-08T16:20:57;8.07;;;3.93;;
15449;SDS011;7826;49.784;9.934;2023-02-08T16:23:26;8.93;;;4.10;;
15449;SDS011;7826;49.784;9.934;2023-02-08T16:25:55;7.47;;;3.70;;
15449;SDS011;7826;49.784;9.934;2023-02-08T16:28:34;7.67;;;4.80;;
15449;SDS011;7826;49.784;9.934;2023-02-08T16:31:01;7.53;;;3.70;;
15449;SDS011;7826;49.784;9.934;2023-02-08T16:33:29;7.53;;;4.10;;
15449;SDS011;7826;49.784;9.934;2023-02-08T16:35:57;6.17;;;4.10;;
15449;SDS011;7826;49.784;9.934;2023-02-08T16:38:28;5.23;;;3.33;;
15449;SDS011;7826;49.784;9.934;2023-02-08T16:40:56;7.57;;;4.17;;
15449;SDS011;7826;49.784;9.934;2023-02-08T16:43:39;5.93;;;3.60;;
15449;SDS011;7826;49.784;9.934;2023-02-08T16:48:41;6.13;;;4.07;;
15449;SDS011;7826;49.784;9.934;2023-02-08T16:51:12;7.13;;;4.57;;
15449;SDS011;7826;49.784;9.934;2023-02-08T16:53:46;7.70;;;4.20;;
15449;SDS011;7826;49.784;9.934;2023-02-08T16:56:18;7.83;;;4.77;;
15449;SDS011;7826;49.784;9.934;2023-02-08T16:58:44;10.17;;;4.43;;
15449;SDS011;7826;49.784;9.934;2023-02-08T17:01:11;12.10;;;6.00;;
15449;SDS011;7826;49.784;9.934;2023-02-08T17:03:39;8.77;;;6.10;;
15449;SDS011;7826;49.784;9.934;2023-02-08T17:06:06;10.63;;;5.63;;
15449;SDS011;7826;49.784;9.934;2023-02-08T17:08:41;8.10;;;4.60;;
15449;SDS011;7826;49.784;9.934;2023-02-08T17:11:08;9.97;;;5.17;;
15449;SDS011;7826;49.784;9.934;2023-02-08T17:13:34;10.70;;;4.93;;
15449;SDS011;7826;49.784;9.934;2023-02-08T17:16:00;8.43;;;5.20;;
15449;SDS011;7826;49.784;9.934;2023-02-08T17:18:27;7.07;;;4.43;;
15449;SDS011;7826;49.784;9.934;2023-02-08T17:20:53;9.10;;;5.73;;
15449;SDS011;7826;49.784;9.934;2023-02-08T17:23:24;9.07;;;5.70;;
15449;SDS011;7826;49.784;9.934;2023-02-08T17:25:51;11.63;;;4.67;;
15449;SDS011;7826;49.784;9.934;2023-02-08T17:28:18;12.67;;;6.07;;
15449;SDS011;7826;49.784;9.934;2023-02-08T17:30:45;8.93;;;5.23;;
15449;SDS011;7826;49.784;9.934;2023-02-08T17:33:13;11.03;;;5.23;;
15449;SDS011;7826;49.784;9.934;2023-02-08T17:35:43;8.70;;;4.67;;
15449;SDS011;7826;49.784;9.934;2023-02-08T17:38:11;10.60;;;5.17;;
15449;SDS011;7826;49.784;9.934;2023-02-08T17:40:38;9.70;;;5.70;;
15449;SDS011;7826;49.784;9.934;2023-02-08T17:43:05;12.03;;;5.33;;
15449;SDS011;7826;49.784;9.934;2023-02-08T17:45:35;11.60;;;5.50;;
15449;SDS011;7826;49.784;9.934;2023-02-08T17:48:04;11.40;;;5.93;;
15449;SDS011;7826;49.784;9.934;2023-02-08T17:50:31;10.80;;;5.37;;
15449;SDS011;7826;49.784;9.934;2023-02-08T17:52:57;13.33;;;4.83;;
15449;SDS011;7826;49.784;9.934;2023-02-08T17:55:23;11.33;;;5.33;;
15449;SDS011;7826;49.784;9.934;2023-02-08T17:57:50;7.97;;;5.07;;
15449;SDS011;7826;49.784;9.934;2023-02-08T18:00:18;12.80;;;5.40;;
15449;SDS011;7826;49.784;9.934;2023-02-08T18:02:47;18.37;;;6.93;;
15449;SDS011;7826;49.784;9.934;2023-02-08T18:05:19;10.20;;;5.10;;
15449;SDS011;7826;49.784;9.934;2023-02-08T18:07:50;17.97;;;7.00;;
15449;SDS011;7826;49.784;9.934;2023-02-08T18:10:17;15.87;;;7.50;;
15449;SDS011;7826;49.784;9.934;2023-02-08T18:12:44;9.40;;;5.80;;